Terminal Aerodrome Forecast
Issued by NWS

Current Version | Previous Version | Graphics & Text | Print | Product List | Glossary On
Versions: 1 2 3 4 5 6 7 8 9 10 11 12 13 14
000
FTUS41 KRNK 151545 AAA
TAFLWB
TAF AMD
KLWB 151545Z 1516/1612 27012KT P6SM -SHRA OVC018
     FM151700 29012G22KT P6SM OVC020
     FM160000 31012G23KT P6SM OVC035
     FM160300 31008KT P6SM SCT023=

USA.gov is the U.S. government's official web portal to all federal, state and local government web resources and services.